地図

経路データ

SID SEASON NUMBER BASIN SUBBASIN NAME ISO_TIME NATURE LAT LON WMO_WIND WMO_PRES WMO_AGENCY TRACK_TYPE DIST2LAND LANDFALL IFLAG USA_AGENCY USA_ATCF_ID USA_LAT USA_LON USA_RECORD USA_STATUS USA_WIND USA_PRES USA_SSHS USA_R34_NE USA_R34_SE USA_R34_SW USA_R34_NW USA_R50_NE USA_R50_SE USA_R50_SW USA_R50_NW USA_R64_NE USA_R64_SE USA_R64_SW USA_R64_NW USA_POCI USA_ROCI USA_RMW USA_EYE TOKYO_LAT TOKYO_LON TOKYO_GRADE TOKYO_WIND TOKYO_PRES TOKYO_R50_DIR TOKYO_R50_LONG TOKYO_R50_SHORT TOKYO_R30_DIR TOKYO_R30_LONG TOKYO_R30_SHORT TOKYO_LAND CMA_LAT CMA_LON CMA_CAT CMA_WIND CMA_PRES HKO_LAT HKO_LON HKO_CAT HKO_WIND HKO_PRES NEWDELHI_LAT NEWDELHI_LON NEWDELHI_GRADE NEWDELHI_WIND NEWDELHI_PRES NEWDELHI_CI NEWDELHI_DP NEWDELHI_POCI REUNION_LAT REUNION_LON REUNION_TYPE REUNION_WIND REUNION_PRES REUNION_TNUM REUNION_CI REUNION_RMW REUNION_R34_NE REUNION_R34_SE REUNION_R34_SW REUNION_R34_NW REUNION_R50_NE REUNION_R50_SE REUNION_R50_SW REUNION_R50_NW REUNION_R64_NE REUNION_R64_SE REUNION_R64_SW REUNION_R64_NW BOM_LAT BOM_LON BOM_TYPE BOM_WIND BOM_PRES BOM_TNUM BOM_CI BOM_RMW BOM_R34_NE BOM_R34_SE BOM_R34_SW BOM_R34_NW BOM_R50_NE BOM_R50_SE BOM_R50_SW BOM_R50_NW BOM_R64_NE BOM_R64_SE BOM_R64_SW BOM_R64_NW BOM_ROCI BOM_POCI BOM_EYE BOM_POS_METHOD BOM_PRES_METHOD NADI_LAT NADI_LON NADI_CAT NADI_WIND NADI_PRES WELLINGTON_LAT WELLINGTON_LON WELLINGTON_WIND WELLINGTON_PRES DS824_LAT DS824_LON DS824_STAGE DS824_WIND DS824_PRES TD9636_LAT TD9636_LON TD9636_STAGE TD9636_WIND TD9636_PRES TD9635_LAT TD9635_LON TD9635_WIND TD9635_PRES TD9635_ROCI NEUMANN_LAT NEUMANN_LON NEUMANN_CLASS NEUMANN_WIND NEUMANN_PRES MLC_LAT MLC_LON MLC_CLASS MLC_WIND MLC_PRES USA_GUST BOM_GUST BOM_GUST_PER REUNION_GUST REUNION_GUST_PER USA_SEAHGT USA_SEARAD_NE USA_SEARAD_SE USA_SEARAD_SW USA_SEARAD_NW STORM_SPEED STORM_DIR
1972153N12252 1972 40 EP MM ANNETTE 1972-06-01 00:00:00 TS 12.3000 -108.000 35 hurdat_epa main 827 820 O________OO___ hurdat_epa EP011972 12.3000 -108.000 TS 35 0 12.3000 -108.000 TC 35 12.3000 -108.000 2 2 91
1972153N12252 1972 40 EP MM ANNETTE 1972-06-01 03:00:00 TS 12.2991 -107.900 main 820 814 P________PP___ EP011972 12.3000 -107.903 TS 35 0 12.3000 -107.903 TC 35 12.2954 -107.889 2 2 90
1972153N12252 1972 40 EP MM ANNETTE 1972-06-01 06:00:00 TS 12.2985 -107.797 35 hurdat_epa main 814 808 O________OP___ hurdat_epa EP011972 12.3000 -107.800 TS 35 0 12.3000 -107.800 TC 35 12.2926 -107.782 2 2 90
1972153N12252 1972 40 EP MM ANNETTE 1972-06-01 09:00:00 TS 12.2987 -107.691 main 808 802 P________PP___ EP011972 12.3000 -107.693 TS 35 0 12.3000 -107.693 TC 35 12.2935 -107.685 2 2 90
1972153N12252 1972 40 EP MM ANNETTE 1972-06-01 12:00:00 TS 12.3000 -107.600 35 hurdat_epa main 802 796 O________OO___ hurdat_epa EP011972 12.3000 -107.600 TS 35 0 12.3000 -107.600 TC 35 12.3000 -107.600 2 1 91
1972153N12252 1972 40 EP MM ANNETTE 1972-06-01 15:00:00 TS 12.2967 -107.540 main 796 796 P________PP___ EP011972 12.2925 -107.543 TS 37 0 12.2925 -107.543 TC 37 12.3137 -107.532 2 1 86
1972153N12252 1972 40 EP MM ANNETTE 1972-06-01 18:00:00 TS 12.3070 -107.496 40 hurdat_epa main 796 791 O________OP___ hurdat_epa EP011972 12.3000 -107.500 TS 40 0 12.3000 -107.500 TC 40 12.3350 -107.478 2 1 61
1972153N12252 1972 40 EP MM ANNETTE 1972-06-01 21:00:00 TS 12.3467 -107.447 main 791 781 P________PP___ EP011972 12.3425 -107.450 TS 40 0 12.3425 -107.450 TC 40 12.3637 -107.435 2 1 47
1972153N12252 1972 40 EP MM ANNETTE 1972-06-02 00:00:00 TS 12.4000 -107.400 40 hurdat_epa main 781 775 O________OO___ hurdat_epa EP011972 12.4000 -107.400 TS 40 0 12.4000 -107.400 TC 40 12.4000 -107.400 2 1 45
1972153N12252 1972 40 EP MM ANNETTE 1972-06-02 03:00:00 TS 12.4478 -107.346 main 775 766 P________PP___ EP011972 12.4500 -107.343 TS 40 0 12.4500 -107.343 TC 40 12.4387 -107.360 2 1 42
1972153N12252 1972 40 EP MM ANNETTE 1972-06-02 06:00:00 TS 12.4970 -107.306 40 hurdat_epa main 766 766 O________OP___ hurdat_epa EP011972 12.5000 -107.300 TS 40 0 12.5000 -107.300 TC 40 12.4850 -107.328 2 1 27
1972153N12252 1972 40 EP MM ANNETTE 1972-06-02 09:00:00 TS 12.5477 -107.295 main 766 756 P________PP___ EP011972 12.5500 -107.293 TS 40 0 12.5500 -107.293 TC 40 12.5387 -107.307 2 1 10
1972153N12252 1972 40 EP MM ANNETTE 1972-06-02 12:00:00 TS 12.6000 -107.300 40 hurdat_epa main 756 756 O________OO___ hurdat_epa EP011972 12.6000 -107.300 TS 40 0 12.6000 -107.300 TC 40 12.6000 -107.300 2 1 0
1972153N12252 1972 40 EP MM ANNETTE 1972-06-02 15:00:00 TS 12.6476 -107.296 main 756 747 P________PP___ EP011972 12.6425 -107.293 TS 42 0 12.6425 -107.293 TC 42 12.6678 -107.311 2 1 346
1972153N12252 1972 40 EP MM ANNETTE 1972-06-02 18:00:00 TS 12.7085 -107.307 45 997 hurdat_epa main 747 738 O________OP___ hurdat_epa EP011972 12.7000 -107.300 TS 45 997 0 12.7000 -107.300 TC 45 997 12.7425 -107.335 2 2 339
1972153N12252 1972 40 EP MM ANNETTE 1972-06-02 21:00:00 TS 12.8042 -107.353 main 743 734 P________PP___ EP011972 12.8000 -107.350 TS 47 0 12.8000 -107.350 TC 47 12.8209 -107.367 2 2 336
1972153N12252 1972 40 EP MM ANNETTE 1972-06-03 00:00:00 TS 12.9000 -107.400 50 hurdat_epa main 734 725 O________OO___ hurdat_epa EP011972 12.9000 -107.400 TS 50 0 12.9000 -107.400 TC 50 12.9000 -107.400 2 2 338
1972153N12252 1972 40 EP MM ANNETTE 1972-06-03 03:00:00 TS 12.9558 -107.406 main 725 725 P________PP___ EP011972 12.9500 -107.400 TS 50 0 12.9500 -107.400 TC 50 12.9791 -107.429 2 1 355
1972153N12252 1972 40 EP MM ANNETTE 1972-06-03 06:00:00 TS 13.0115 -107.412 50 hurdat_epa main 725 716 O________OP___ hurdat_epa EP011972 13.0000 -107.400 TS 50 0 13.0000 -107.400 TC 50 13.0575 -107.457 2 2 342
1972153N12252 1972 40 EP MM ANNETTE 1972-06-03 09:00:00 TS 13.1064 -107.456 main 722 713 P________PP___ EP011972 13.1000 -107.450 TS 50 0 13.1000 -107.450 TC 50 13.1322 -107.482 2 2 334
1972153N12252 1972 40 EP MM ANNETTE 1972-06-03 12:00:00 TS 13.2000 -107.500 50 hurdat_epa main 713 704 O________OO___ hurdat_epa EP011972 13.2000 -107.500 TS 50 0 13.2000 -107.500 TC 50 13.2000 -107.500 2 2 338
1972153N12252 1972 40 EP MM ANNETTE 1972-06-03 15:00:00 TS 13.2574 -107.507 main 704 704 P________PP___ EP011972 13.2575 -107.508 TS 50 0 13.2575 -107.508 TC 50 13.2572 -107.503 2 1 14
1972153N12252 1972 40 EP MM ANNETTE 1972-06-03 18:00:00 TS 13.3015 -107.500 50 hurdat_epa main 704 704 O________OP___ hurdat_epa EP011972 13.3000 -107.500 TS 50 0 13.3000 -107.500 TC 50 13.3075 -107.500 2 1 16
1972153N12252 1972 40 EP MM ANNETTE 1972-06-03 21:00:00 TS 13.3508 -107.499 main 695 695 P________PP___ EP011972 13.3500 -107.500 TS 55 0 13.3500 -107.500 TC 55 13.3541 -107.497 2 1 0
1972153N12252 1972 40 EP MM ANNETTE 1972-06-04 00:00:00 TS 13.4000 -107.500 60 hurdat_epa main 695 695 O________OO___ hurdat_epa EP011972 13.4000 -107.500 TS 60 0 13.4000 -107.500 TC 60 13.4000 -107.500 2 1 0
1972153N12252 1972 40 EP MM ANNETTE 1972-06-04 03:00:00 TS 13.4500 -107.498 main 686 686 P________PP___ EP011972 13.4500 -107.493 TS 60 0 13.4500 -107.493 TC 60 13.4500 -107.522 2 1 0
1972153N12252 1972 40 EP MM ANNETTE 1972-06-04 06:00:00 TS 13.5000 -107.510 60 hurdat_epa main 686 686 O________OP___ hurdat_epa EP011972 13.5000 -107.500 TS 60 0 13.5000 -107.500 TC 60 13.5000 -107.550 2 1 333
1972153N12252 1972 40 EP MM ANNETTE 1972-06-04 09:00:00 TS 13.5500 -107.556 main 684 684 P________PP___ EP011972 13.5500 -107.550 TS 60 0 13.5500 -107.550 TC 60 13.5500 -107.578 2 1 320
1972153N12252 1972 40 EP MM ANNETTE 1972-06-04 12:00:00 TS 13.6000 -107.600 60 hurdat_epa main 684 684 O________OO___ hurdat_epa EP011972 13.6000 -107.600 TS 60 0 13.6000 -107.600 TC 60 13.6000 -107.600 2 1 333
1972153N12252 1972 40 EP MM ANNETTE 1972-06-04 15:00:00 TS 13.6500 -107.608 main 676 676 P________PP___ EP011972 13.6500 -107.608 TS 67 1 13.6500 -107.608 TC 67 13.6500 -107.611 2 1 0
1972153N12252 1972 40 EP MM ANNETTE 1972-06-04 18:00:00 TS 13.7000 -107.603 75 hurdat_epa main 676 676 O________OP___ hurdat_epa EP011972 13.7000 -107.600 HU 75 1 13.7000 -107.600 TC 75 13.7000 -107.615 2 1 0
1972153N12252 1972 40 EP MM ANNETTE 1972-06-04 21:00:00 TS 13.7500 -107.602 main 667 667 P________PP___ EP011972 13.7500 -107.600 HU 72 1 13.7500 -107.600 TC 72 13.7500 -107.611 2 1 0
1972153N12252 1972 40 EP MM ANNETTE 1972-06-05 00:00:00 TS 13.8000 -107.600 70 hurdat_epa main 667 667 O________OO___ hurdat_epa EP011972 13.8000 -107.600 HU 70 1 13.8000 -107.600 TC 70 13.8000 -107.600 2 1 8
1972153N12252 1972 40 EP MM ANNETTE 1972-06-05 03:00:00 TS 13.8459 -107.602 main 667 659 P________PP___ EP011972 13.8500 -107.607 HU 70 1 13.8500 -107.607 TC 70 13.8297 -107.578 2 1 0
1972153N12252 1972 40 EP MM ANNETTE 1972-06-05 06:00:00 TS 13.8925 -107.590 70 hurdat_epa main 659 652 O________OP___ hurdat_epa EP011972 13.9000 -107.600 HU 70 1 13.9000 -107.600 TC 70 13.8625 -107.550 2 1 36
1972153N12252 1972 40 EP MM ANNETTE 1972-06-05 09:00:00 TS 13.9308 -107.544 main 652 643 P________PP___ EP011972 13.9350 -107.550 HU 70 1 13.9350 -107.550 TC 70 13.9141 -107.522 2 1 38
1972153N12252 1972 40 EP MM ANNETTE 1972-06-05 12:00:00 TS 14.0000 -107.500 70 hurdat_epa main 643 635 O________OO___ hurdat_epa EP011972 14.0000 -107.500 HU 70 1 14.0000 -107.500 TC 70 14.0000 -107.500 2 2 8
1972153N12252 1972 40 EP MM ANNETTE 1972-06-05 15:00:00 TS 14.1266 -107.499 main 635 618 P________PP___ EP011972 14.1275 -107.493 HU 57 0 14.1275 -107.493 TC 57 14.1228 -107.525 2 3 0
1972153N12252 1972 40 EP MM ANNETTE 1972-06-05 18:00:00 TS 14.2965 -107.510 45 1002 hurdat_epa main 618 599 O________OP___ hurdat_epa EP011972 14.3000 -107.500 TS 45 1002 0 14.3000 -107.500 TC 45 1002 14.2824 -107.552 2 4 352
1972153N12252 1972 40 EP MM ANNETTE 1972-06-05 21:00:00 TS 14.4772 -107.529 main 599 579 P________PP___ EP011972 14.4775 -107.522 TS 45 0 14.4775 -107.522 TC 45 14.4758 -107.553 2 4 0
1972153N12252 1972 40 EP MM ANNETTE 1972-06-06 00:00:00 TS 14.7000 -107.500 45 hurdat_epa main 579 545 O________OO___ hurdat_epa EP011972 14.7000 -107.500 TS 45 0 14.7000 -107.500 TC 45 14.7000 -107.500 2 5 16
1972153N12252 1972 40 EP MM ANNETTE 1972-06-06 03:00:00 TS 14.9849 -107.383 main 545 505 P________PP___ EP011972 14.9925 -107.388 TS 42 0 14.9925 -107.388 TC 42 14.9544 -107.366 2 7 27
1972153N12252 1972 40 EP MM ANNETTE 1972-06-06 06:00:00 TS 15.2870 -107.195 40 hurdat_epa main 505 475 O________OP___ hurdat_epa EP011972 15.3000 -107.200 TS 40 0 15.3000 -107.200 TC 40 15.2351 -107.175 2 7 35
1972153N12252 1972 40 EP MM ANNETTE 1972-06-06 09:00:00 TS 15.5566 -106.961 main 465 430 P________PP___ EP011972 15.5650 -106.965 TS 40 0 15.5650 -106.965 TC 40 15.5231 -106.947 2 7 43
1972153N12252 1972 40 EP MM ANNETTE 1972-06-06 12:00:00 TS 15.8000 -106.700 40 hurdat_epa main 430 400 O________OO___ hurdat_epa EP011972 15.8000 -106.700 TS 40 0 15.8000 -106.700 TC 40 15.8000 -106.700 2 7 48
1972153N12252 1972 40 EP MM ANNETTE 1972-06-06 15:00:00 TS 16.0054 -106.449 main 396 366 P________PP___ EP011972 16.0000 -106.450 TS 47 0 16.0000 -106.450 TC 47 16.0273 -106.444 2 6 50
1972153N12252 1972 40 EP MM ANNETTE 1972-06-06 18:00:00 TS 16.2085 -106.195 55 993 hurdat_epa main 366 331 O________OP___ hurdat_epa EP011972 16.2000 -106.200 TS 55 993 0 16.2000 -106.200 TC 55 993 16.2427 -106.177 2 7 49
1972153N12252 1972 40 EP MM ANNETTE 1972-06-06 21:00:00 TS 16.4404 -105.926 main 331 294 P________PP___ EP011972 16.4350 -105.928 TS 55 0 16.4350 -105.928 TC 55 16.4617 -105.922 2 7 44
1972153N12252 1972 40 EP MM ANNETTE 1972-06-07 00:00:00 TS 16.7000 -105.700 55 hurdat_epa main 294 260 O________OO___ hurdat_epa EP011972 16.7000 -105.700 TS 55 0 16.7000 -105.700 TC 55 16.7000 -105.700 2 6 32
1972153N12252 1972 40 EP MM ANNETTE 1972-06-07 03:00:00 TS 16.9878 -105.573 main 260 225 P________PP___ EP011972 16.9924 -105.585 TS 55 0 16.9924 -105.585 TC 55 16.9693 -105.527 2 6 19
1972153N12252 1972 40 EP MM ANNETTE 1972-06-07 06:00:00 TS 17.2944 -105.483 55 hurdat_epa main 225 189 O________OP___ hurdat_epa EP011972 17.3000 -105.500 TS 55 0 17.3000 -105.500 TC 55 17.2649 -105.395 2 6 17
1972153N12252 1972 40 EP MM ANNETTE 1972-06-07 09:00:00 TS 17.6041 -105.377 main 189 151 P________PP___ EP011972 17.6074 -105.387 TS 55 0 17.6074 -105.387 TC 55 17.5780 -105.291 2 7 24
1972153N12252 1972 40 EP MM ANNETTE 1972-06-07 12:00:00 TS 17.9000 -105.200 55 hurdat_epa main 151 118 O________OO___ hurdat_epa EP011972 17.9000 -105.200 TS 55 0 17.9000 -105.200 TC 55 17.9000 -105.200 2 7 40
1972153N12252 1972 40 EP MM ANNETTE 1972-06-07 15:00:00 TS 18.1500 -104.895 main 118 70 P________P____ EP011972 18.1500 -104.895 TS 45 0 18.1500 -104.895 TC 45 2 8 53
1972153N12252 1972 40 EP MM ANNETTE 1972-06-07 18:00:00 MX 18.4000 -104.500 35 1008 hurdat_epa main 70 24 O________O____ hurdat_epa EP011972 18.4000 -104.500 TS 35 1008 0 18.4000 -104.500 35 1008 2 10 55
1972153N12252 1972 40 EP MM ANNETTE 1972-06-07 21:00:00 MX 18.6925 -104.065 main 24 0 P________P____ EP011972 18.6925 -104.065 TS 30 -1 18.6925 -104.065 30 2 10 55
1972153N12252 1972 40 EP MM ANNETTE 1972-06-08 00:00:00 MX 19.0000 -103.600 25 hurdat_epa main 0 0 O________O____ hurdat_epa EP011972 19.0000 -103.600 TD 25 -1 19.0000 -103.600 25 11 55
1972153N12252 1972 40 EP MM ANNETTE 1972-06-08 03:00:00 MX 19.2998 -103.157 main 0 0 P________P____ EP011972 19.2998 -103.157 TD 25 -1 19.2998 -103.157 25 10 55
1972153N12252 1972 40 EP MM ANNETTE 1972-06-08 06:00:00 MX 19.6000 -102.700 25 hurdat_epa main 0 0 O________O____ hurdat_epa EP011972 19.6000 -102.700 TD 25 -1 19.6000 -102.700 25 11 56
1972153N12252 1972 40 EP MM ANNETTE 1972-06-08 09:00:00 MX 19.9003 -102.210 main 0 0 P________P____ EP011972 19.9003 -102.210 TD 25 -1 19.9003 -102.210 25 11 57
1972153N12252 1972 40 EP MM ANNETTE 1972-06-08 12:00:00 MX 20.2000 -101.700 25 hurdat_epa main 0 O________O____ hurdat_epa EP011972 20.2000 -101.700 TD 25 -1 20.2000 -101.700 25 11 58

IBTrACS Databaseについて

本データベースは、米国NOAAが公開する1842年以降の世界の熱帯低気圧のベストトラックデータアーカイブInternational Best Track Archive for Climate Stewardship (IBTrACS)を、ウェブで閲覧しやすい形式に変換したものです。

最終更新日:2021-11-26